KBQK/BQK METAR and TAF weather

Enter ICAO airport designator
Station Type Date Time Source
KBQK METAR 2022/11/30 18:15 UTC NOAA

KBQK 301815Z AUTO 12007KT 10SM -RA BKN070 OVC090 18/17 A3010 RMK AO2 P0001 T01840173


Station Type Date Time Source
KBQK Decoded METAR 2022/11/30 18:15 UTC NOAA

Brunswick / Glynco, GA, United States (KBQK) 31-15N 081-28W
Nov 30, 2022 - 01:15 PM EST / 2022.11.30 1815 UTC
Wind: from the ESE (120 degrees) at 8 MPH (7 KT):0
Visibility: 10 mile(s):0
Sky conditions: overcast
Weather: light rain
Precipitation last hour: 0.01 inches
Temperature: 65.1 F (18.4 C)
Dew Point: 63.1 F (17.3 C)
Relative Humidity: 93%
Pressure (altimeter): 30.1 in. Hg (1019 hPa)
ob: KBQK 301815Z AUTO 12007KT 10SM -RA BKN070 OVC090 18/17 A3010 RMK AO2 P0001 T01840173
cycle: 18

Station Type Date Time Source
KBQK TAF UTC NOAA

Error!

Example: see airport list